Adair, Oklahoma
Current Conditions -  °F | °C
As of 12:55 PM on Sunday 23 Nov 2014 (Local Time) from KGCM Reporting Station
Broken Clouds Broken Clouds  
Wind Chill: 63°   Ceiling: 1700
Heat Index: 63°   Visibility: 10mi
Dew Point: 55°   Wind: 10mph
Humidity: 77%   Direction: 160°SSE
Pressure: 29.35"   Gusts: NA
Location:  36.44°N, 95.27°W
Report Text: KGCM 231855Z AUTO 16009KT 10SM BKN017 17/13 A2935 RMK AO2
Loading
Personal Weather Stations






























Interactive Weather Map New forecast layout! Learn more

10-Day Weather Forecast

Advertisements
Track Severe Weather on mobile